Terminal Aerodrome Forecast
Issued by NWS

Home | Current Version | Previous Version | Text Only | Print | Product List | Glossary On
Versions: 1 2 3 4 5 6 7 8 9 10 11 12 13 14 15 16 17 18 19 20 21 22 23
000
FTUS43 KMKX 220522
TAFUES
TAF
KUES 220522Z 2206/2306 19005KT P6SM FEW250
      TEMPO 2209/2213 4SM BR SCT002
     FM221600 22009KT P6SM FEW250
     FM221800 22013G20KT P6SM FEW250
     FM230100 22008KT P6SM FEW140=

USA.gov is the U.S. government's official web portal to all federal, state and local government web resources and services.